sensor_id;sensor_type;location;lat;lon;timestamp;P1;durP1;ratioP1;P2;durP2;ratioP2
15061;SDS011;7630;50.306;8.566;2024-03-22T00:02:27;34.73;;;26.23;;
15061;SDS011;7630;50.306;8.566;2024-03-22T00:06:28;40.50;;;30.47;;
15061;SDS011;7630;50.306;8.566;2024-03-22T00:10:29;38.73;;;29.40;;
15061;SDS011;7630;50.306;8.566;2024-03-22T00:14:30;29.13;;;25.00;;
15061;SDS011;7630;50.306;8.566;2024-03-22T00:18:32;34.87;;;26.87;;
15061;SDS011;7630;50.306;8.566;2024-03-22T00:22:34;35.03;;;27.97;;
15061;SDS011;7630;50.306;8.566;2024-03-22T00:26:35;36.03;;;27.60;;
15061;SDS011;7630;50.306;8.566;2024-03-22T00:30:36;34.80;;;28.40;;
15061;SDS011;7630;50.306;8.566;2024-03-22T00:34:39;33.30;;;28.53;;
15061;SDS011;7630;50.306;8.566;2024-03-22T00:38:40;34.67;;;29.13;;
15061;SDS011;7630;50.306;8.566;2024-03-22T00:42:41;38.77;;;29.63;;
15061;SDS011;7630;50.306;8.566;2024-03-22T00:46:42;40.33;;;29.13;;
15061;SDS011;7630;50.306;8.566;2024-03-22T00:50:43;38.60;;;29.40;;
15061;SDS011;7630;50.306;8.566;2024-03-22T00:54:44;31.33;;;25.93;;
15061;SDS011;7630;50.306;8.566;2024-03-22T00:58:46;32.37;;;25.33;;
15061;SDS011;7630;50.306;8.566;2024-03-22T01:02:47;31.33;;;26.57;;
15061;SDS011;7630;50.306;8.566;2024-03-22T01:06:48;27.77;;;21.70;;
15061;SDS011;7630;50.306;8.566;2024-03-22T01:10:49;25.30;;;22.60;;
15061;SDS011;7630;50.306;8.566;2024-03-22T01:14:50;31.93;;;23.57;;
15061;SDS011;7630;50.306;8.566;2024-03-22T01:18:51;33.80;;;27.00;;
15061;SDS011;7630;50.306;8.566;2024-03-22T01:22:52;40.40;;;32.17;;
15061;SDS011;7630;50.306;8.566;2024-03-22T01:26:53;44.70;;;32.57;;
15061;SDS011;7630;50.306;8.566;2024-03-22T01:30:54;48.77;;;35.47;;
15061;SDS011;7630;50.306;8.566;2024-03-22T01:34:55;41.17;;;31.83;;
15061;SDS011;7630;50.306;8.566;2024-03-22T01:38:57;40.73;;;31.90;;
15061;SDS011;7630;50.306;8.566;2024-03-22T01:42:58;36.60;;;28.07;;
15061;SDS011;7630;50.306;8.566;2024-03-22T01:47:00;36.43;;;27.50;;
15061;SDS011;7630;50.306;8.566;2024-03-22T01:51:02;34.10;;;27.10;;
15061;SDS011;7630;50.306;8.566;2024-03-22T01:55:06;32.77;;;25.63;;
15061;SDS011;7630;50.306;8.566;2024-03-22T01:59:08;36.70;;;25.77;;
15061;SDS011;7630;50.306;8.566;2024-03-22T02:03:09;28.63;;;24.67;;
15061;SDS011;7630;50.306;8.566;2024-03-22T02:07:10;30.63;;;25.03;;
15061;SDS011;7630;50.306;8.566;2024-03-22T02:11:11;35.03;;;24.37;;
15061;SDS011;7630;50.306;8.566;2024-03-22T02:15:12;29.83;;;23.50;;
15061;SDS011;7630;50.306;8.566;2024-03-22T02:19:14;35.30;;;26.53;;
15061;SDS011;7630;50.306;8.566;2024-03-22T02:23:15;42.67;;;27.40;;
15061;SDS011;7630;50.306;8.566;2024-03-22T02:27:16;37.37;;;25.93;;
15061;SDS011;7630;50.306;8.566;2024-03-22T02:31:17;36.93;;;25.67;;
15061;SDS011;7630;50.306;8.566;2024-03-22T02:35:19;34.47;;;26.80;;
15061;SDS011;7630;50.306;8.566;2024-03-22T02:39:20;37.60;;;27.07;;
15061;SDS011;7630;50.306;8.566;2024-03-22T02:43:21;35.70;;;25.10;;
15061;SDS011;7630;50.306;8.566;2024-03-22T02:47:22;30.83;;;24.47;;
15061;SDS011;7630;50.306;8.566;2024-03-22T02:51:25;29.63;;;24.57;;
15061;SDS011;7630;50.306;8.566;2024-03-22T02:55:26;34.13;;;25.07;;
15061;SDS011;7630;50.306;8.566;2024-03-22T02:59:28;31.83;;;24.37;;
15061;SDS011;7630;50.306;8.566;2024-03-22T03:03:29;31.10;;;23.17;;
15061;SDS011;7630;50.306;8.566;2024-03-22T03:07:31;39.73;;;26.07;;
15061;SDS011;7630;50.306;8.566;2024-03-22T03:11:32;34.43;;;25.30;;
15061;SDS011;7630;50.306;8.566;2024-03-22T03:15:33;38.20;;;26.63;;
15061;SDS011;7630;50.306;8.566;2024-03-22T03:19:34;28.73;;;22.70;;
15061;SDS011;7630;50.306;8.566;2024-03-22T03:23:35;30.30;;;23.97;;
15061;SDS011;7630;50.306;8.566;2024-03-22T03:27:36;31.57;;;23.63;;
15061;SDS011;7630;50.306;8.566;2024-03-22T03:31:37;30.70;;;23.03;;
15061;SDS011;7630;50.306;8.566;2024-03-22T03:35:38;34.07;;;24.03;;
15061;SDS011;7630;50.306;8.566;2024-03-22T03:39:39;33.10;;;26.37;;
15061;SDS011;7630;50.306;8.566;2024-03-22T03:43:40;32.03;;;23.60;;
15061;SDS011;7630;50.306;8.566;2024-03-22T03:47:42;31.13;;;22.67;;
15061;SDS011;7630;50.306;8.566;2024-03-22T03:51:43;37.10;;;24.10;;
15061;SDS011;7630;50.306;8.566;2024-03-22T03:55:44;31.33;;;23.90;;
15061;SDS011;7630;50.306;8.566;2024-03-22T03:59:45;31.50;;;23.23;;
15061;SDS011;7630;50.306;8.566;2024-03-22T04:03:46;32.40;;;23.23;;
15061;SDS011;7630;50.306;8.566;2024-03-22T04:07:49;34.47;;;22.80;;
15061;SDS011;7630;50.306;8.566;2024-03-22T04:11:50;30.20;;;21.83;;
15061;SDS011;7630;50.306;8.566;2024-03-22T04:15:52;34.30;;;23.57;;
15061;SDS011;7630;50.306;8.566;2024-03-22T04:19:53;33.97;;;25.43;;
15061;SDS011;7630;50.306;8.566;2024-03-22T04:23:54;46.27;;;29.27;;
15061;SDS011;7630;50.306;8.566;2024-03-22T04:27:55;27.33;;;21.47;;
15061;SDS011;7630;50.306;8.566;2024-03-22T04:31:56;41.60;;;23.43;;
15061;SDS011;7630;50.306;8.566;2024-03-22T04:35:59;38.40;;;24.43;;
15061;SDS011;7630;50.306;8.566;2024-03-22T04:40:01;31.60;;;23.67;;
15061;SDS011;7630;50.306;8.566;2024-03-22T04:44:03;31.20;;;22.60;;
15061;SDS011;7630;50.306;8.566;2024-03-22T04:48:05;27.07;;;22.13;;
15061;SDS011;7630;50.306;8.566;2024-03-22T04:52:06;28.17;;;22.50;;
15061;SDS011;7630;50.306;8.566;2024-03-22T04:56:07;29.87;;;21.20;;
15061;SDS011;7630;50.306;8.566;2024-03-22T05:00:10;32.83;;;26.50;;
15061;SDS011;7630;50.306;8.566;2024-03-22T05:04:12;31.00;;;22.57;;
15061;SDS011;7630;50.306;8.566;2024-03-22T05:08:13;32.90;;;23.57;;
15061;SDS011;7630;50.306;8.566;2024-03-22T05:12:14;29.87;;;22.47;;
15061;SDS011;7630;50.306;8.566;2024-03-22T05:16:15;28.50;;;20.90;;
15061;SDS011;7630;50.306;8.566;2024-03-22T05:20:16;26.47;;;18.77;;
15061;SDS011;7630;50.306;8.566;2024-03-22T05:24:17;24.33;;;19.17;;
15061;SDS011;7630;50.306;8.566;2024-03-22T05:28:18;28.80;;;22.27;;
15061;SDS011;7630;50.306;8.566;2024-03-22T05:32:19;28.47;;;21.17;;
15061;SDS011;7630;50.306;8.566;2024-03-22T05:36:20;23.30;;;19.47;;
15061;SDS011;7630;50.306;8.566;2024-03-22T05:40:21;24.80;;;17.83;;
15061;SDS011;7630;50.306;8.566;2024-03-22T05:44:22;24.27;;;18.53;;
15061;SDS011;7630;50.306;8.566;2024-03-22T05:48:24;19.40;;;13.83;;
15061;SDS011;7630;50.306;8.566;2024-03-22T05:52:25;18.47;;;15.17;;
15061;SDS011;7630;50.306;8.566;2024-03-22T05:56:26;24.60;;;16.87;;
15061;SDS011;7630;50.306;8.566;2024-03-22T06:00:27;24.80;;;15.43;;
15061;SDS011;7630;50.306;8.566;2024-03-22T06:04:28;19.97;;;14.07;;
15061;SDS011;7630;50.306;8.566;2024-03-22T06:08:29;23.50;;;16.70;;
15061;SDS011;7630;50.306;8.566;2024-03-22T06:12:32;23.50;;;17.00;;
15061;SDS011;7630;50.306;8.566;2024-03-22T06:16:33;17.73;;;15.83;;
15061;SDS011;7630;50.306;8.566;2024-03-22T06:20:34;22.47;;;16.97;;
15061;SDS011;7630;50.306;8.566;2024-03-22T06:24:35;18.30;;;15.30;;
15061;SDS011;7630;50.306;8.566;2024-03-22T06:28:36;21.30;;;16.87;;
15061;SDS011;7630;50.306;8.566;2024-03-22T06:32:38;28.73;;;18.63;;
15061;SDS011;7630;50.306;8.566;2024-03-22T06:36:39;18.53;;;15.53;;
15061;SDS011;7630;50.306;8.566;2024-03-22T06:40:40;17.57;;;15.87;;
15061;SDS011;7630;50.306;8.566;2024-03-22T06:44:41;18.60;;;16.50;;
15061;SDS011;7630;50.306;8.566;2024-03-22T06:48:42;20.43;;;15.67;;
15061;SDS011;7630;50.306;8.566;2024-03-22T06:52:44;22.80;;;15.40;;
15061;SDS011;7630;50.306;8.566;2024-03-22T06:56:45;19.13;;;15.57;;
15061;SDS011;7630;50.306;8.566;2024-03-22T07:00:46;14.90;;;13.30;;
15061;SDS011;7630;50.306;8.566;2024-03-22T07:04:47;13.97;;;10.77;;
15061;SDS011;7630;50.306;8.566;2024-03-22T07:08:48;16.27;;;11.07;;
15061;SDS011;7630;50.306;8.566;2024-03-22T07:12:49;12.57;;;8.97;;
15061;SDS011;7630;50.306;8.566;2024-03-22T07:16:51;11.70;;;10.17;;
15061;SDS011;7630;50.306;8.566;2024-03-22T07:20:54;14.40;;;7.40;;
15061;SDS011;7630;50.306;8.566;2024-03-22T07:24:55;7.10;;;5.20;;
15061;SDS011;7630;50.306;8.566;2024-03-22T07:28:57;4.80;;;4.40;;
15061;SDS011;7630;50.306;8.566;2024-03-22T07:32:58;5.00;;;4.60;;
15061;SDS011;7630;50.306;8.566;2024-03-22T07:36:59;3.90;;;3.50;;
15061;SDS011;7630;50.306;8.566;2024-03-22T07:41:02;4.70;;;4.30;;
15061;SDS011;7630;50.306;8.566;2024-03-22T07:45:05;7.17;;;5.30;;
15061;SDS011;7630;50.306;8.566;2024-03-22T07:49:06;6.13;;;5.53;;
15061;SDS011;7630;50.306;8.566;2024-03-22T07:53:07;7.53;;;6.30;;
15061;SDS011;7630;50.306;8.566;2024-03-22T07:57:09;13.13;;;8.07;;
15061;SDS011;7630;50.306;8.566;2024-03-22T08:01:11;9.77;;;8.23;;
15061;SDS011;7630;50.306;8.566;2024-03-22T08:05:12;10.00;;;9.00;;
15061;SDS011;7630;50.306;8.566;2024-03-22T08:09:14;12.33;;;10.07;;
15061;SDS011;7630;50.306;8.566;2024-03-22T08:13:15;17.37;;;9.50;;
15061;SDS011;7630;50.306;8.566;2024-03-22T08:17:16;11.63;;;10.53;;
15061;SDS011;7630;50.306;8.566;2024-03-22T08:21:17;13.23;;;11.83;;
15061;SDS011;7630;50.306;8.566;2024-03-22T08:25:19;15.03;;;11.77;;
15061;SDS011;7630;50.306;8.566;2024-03-22T08:29:21;13.13;;;11.60;;
15061;SDS011;7630;50.306;8.566;2024-03-22T08:33:22;12.63;;;11.40;;
15061;SDS011;7630;50.306;8.566;2024-03-22T08:37:23;12.97;;;11.50;;
15061;SDS011;7630;50.306;8.566;2024-03-22T08:41:24;12.20;;;10.93;;
15061;SDS011;7630;50.306;8.566;2024-03-22T08:45:26;12.87;;;11.07;;
15061;SDS011;7630;50.306;8.566;2024-03-22T08:49:27;13.57;;;9.67;;
15061;SDS011;7630;50.306;8.566;2024-03-22T08:53:28;9.67;;;8.50;;
15061;SDS011;7630;50.306;8.566;2024-03-22T08:57:30;9.63;;;8.33;;
15061;SDS011;7630;50.306;8.566;2024-03-22T09:01:31;9.40;;;8.47;;
15061;SDS011;7630;50.306;8.566;2024-03-22T09:05:33;12.53;;;8.73;;
15061;SDS011;7630;50.306;8.566;2024-03-22T09:09:34;16.60;;;10.50;;
15061;SDS011;7630;50.306;8.566;2024-03-22T09:13:35;15.63;;;10.03;;
15061;SDS011;7630;50.306;8.566;2024-03-22T09:17:36;10.53;;;9.53;;
15061;SDS011;7630;50.306;8.566;2024-03-22T09:21:37;10.87;;;9.77;;
15061;SDS011;7630;50.306;8.566;2024-03-22T09:25:38;11.60;;;9.57;;
15061;SDS011;7630;50.306;8.566;2024-03-22T09:29:41;12.00;;;10.90;;
15061;SDS011;7630;50.306;8.566;2024-03-22T09:33:44;14.40;;;12.77;;
15061;SDS011;7630;50.306;8.566;2024-03-22T09:37:45;14.50;;;13.17;;
15061;SDS011;7630;50.306;8.566;2024-03-22T09:41:48;17.30;;;14.13;;
15061;SDS011;7630;50.306;8.566;2024-03-22T09:45:51;19.07;;;14.30;;
15061;SDS011;7630;50.306;8.566;2024-03-22T09:49:53;13.37;;;12.07;;
15061;SDS011;7630;50.306;8.566;2024-03-22T09:53:55;30.13;;;15.93;;
15061;SDS011;7630;50.306;8.566;2024-03-22T09:57:56;14.43;;;13.03;;
15061;SDS011;7630;50.306;8.566;2024-03-22T10:01:57;15.10;;;13.60;;
15061;SDS011;7630;50.306;8.566;2024-03-22T10:06:00;16.43;;;14.77;;
15061;SDS011;7630;50.306;8.566;2024-03-22T10:10:02;15.63;;;14.00;;
15061;SDS011;7630;50.306;8.566;2024-03-22T10:14:04;13.70;;;12.40;;
15061;SDS011;7630;50.306;8.566;2024-03-22T10:18:07;15.73;;;13.13;;
15061;SDS011;7630;50.306;8.566;2024-03-22T10:22:10;17.37;;;13.30;;
15061;SDS011;7630;50.306;8.566;2024-03-22T10:26:11;15.40;;;13.83;;
15061;SDS011;7630;50.306;8.566;2024-03-22T10:30:13;15.93;;;13.97;;
15061;SDS011;7630;50.306;8.566;2024-03-22T10:34:24;14.77;;;11.40;;
15061;SDS011;7630;50.306;8.566;2024-03-22T10:38:25;12.80;;;11.60;;
15061;SDS011;7630;50.306;8.566;2024-03-22T10:42:27;13.33;;;12.00;;
15061;SDS011;7630;50.306;8.566;2024-03-22T10:46:29;11.73;;;10.63;;
15061;SDS011;7630;50.306;8.566;2024-03-22T10:50:31;14.03;;;12.80;;
15061;SDS011;7630;50.306;8.566;2024-03-22T10:54:36;11.60;;;10.40;;
15061;SDS011;7630;50.306;8.566;2024-03-22T10:58:41;11.83;;;10.73;;
15061;SDS011;7630;50.306;8.566;2024-03-22T11:02:44;10.13;;;9.07;;
15061;SDS011;7630;50.306;8.566;2024-03-22T11:06:49;11.00;;;9.40;;
15061;SDS011;7630;50.306;8.566;2024-03-22T11:10:51;11.13;;;10.07;;
15061;SDS011;7630;50.306;8.566;2024-03-22T11:14:53;15.23;;;10.13;;
15061;SDS011;7630;50.306;8.566;2024-03-22T11:18:54;10.90;;;9.97;;
15061;SDS011;7630;50.306;8.566;2024-03-22T11:22:56;9.73;;;8.80;;
15061;SDS011;7630;50.306;8.566;2024-03-22T11:26:57;11.87;;;10.77;;
15061;SDS011;7630;50.306;8.566;2024-03-22T11:30:58;10.30;;;9.27;;
15061;SDS011;7630;50.306;8.566;2024-03-22T11:34:59;11.47;;;10.57;;
15061;SDS011;7630;50.306;8.566;2024-03-22T11:39:00;11.50;;;9.27;;
15061;SDS011;7630;50.306;8.566;2024-03-22T11:43:01;11.00;;;9.03;;
15061;SDS011;7630;50.306;8.566;2024-03-22T11:47:04;12.03;;;9.20;;
15061;SDS011;7630;50.306;8.566;2024-03-22T11:51:06;11.63;;;9.53;;
15061;SDS011;7630;50.306;8.566;2024-03-22T11:55:12;10.60;;;9.40;;
15061;SDS011;7630;50.306;8.566;2024-03-22T11:59:14;11.23;;;9.37;;
15061;SDS011;7630;50.306;8.566;2024-03-22T12:03:18;10.30;;;9.40;;
15061;SDS011;7630;50.306;8.566;2024-03-22T12:07:19;10.47;;;9.47;;
15061;SDS011;7630;50.306;8.566;2024-03-22T12:11:20;13.77;;;12.40;;
15061;SDS011;7630;50.306;8.566;2024-03-22T12:15:21;10.73;;;9.73;;
15061;SDS011;7630;50.306;8.566;2024-03-22T12:19:22;12.43;;;11.30;;
15061;SDS011;7630;50.306;8.566;2024-03-22T12:23:23;12.80;;;11.57;;
15061;SDS011;7630;50.306;8.566;2024-03-22T12:27:25;12.27;;;10.93;;
15061;SDS011;7630;50.306;8.566;2024-03-22T12:31:28;12.80;;;11.67;;
15061;SDS011;7630;50.306;8.566;2024-03-22T12:35:29;13.97;;;11.27;;
15061;SDS011;7630;50.306;8.566;2024-03-22T12:39:32;13.60;;;12.13;;
15061;SDS011;7630;50.306;8.566;2024-03-22T12:43:33;14.10;;;12.83;;
15061;SDS011;7630;50.306;8.566;2024-03-22T12:47:36;13.07;;;11.57;;
15061;SDS011;7630;50.306;8.566;2024-03-22T12:51:39;13.27;;;11.87;;
15061;SDS011;7630;50.306;8.566;2024-03-22T12:55:40;11.63;;;10.53;;
15061;SDS011;7630;50.306;8.566;2024-03-22T12:59:41;14.13;;;12.37;;
15061;SDS011;7630;50.306;8.566;2024-03-22T13:03:42;12.97;;;11.53;;
15061;SDS011;7630;50.306;8.566;2024-03-22T13:07:43;11.87;;;10.67;;
15061;SDS011;7630;50.306;8.566;2024-03-22T13:11:44;12.73;;;11.47;;
15061;SDS011;7630;50.306;8.566;2024-03-22T13:15:45;11.50;;;10.30;;
15061;SDS011;7630;50.306;8.566;2024-03-22T13:19:47;20.20;;;13.43;;
15061;SDS011;7630;50.306;8.566;2024-03-22T13:23:48;12.07;;;10.87;;
15061;SDS011;7630;50.306;8.566;2024-03-22T13:27:49;13.47;;;12.20;;
15061;SDS011;7630;50.306;8.566;2024-03-22T13:31:50;12.63;;;11.37;;
15061;SDS011;7630;50.306;8.566;2024-03-22T13:35:52;12.43;;;11.13;;
15061;SDS011;7630;50.306;8.566;2024-03-22T13:39:53;11.20;;;9.80;;
15061;SDS011;7630;50.306;8.566;2024-03-22T13:43:54;11.77;;;10.20;;
15061;SDS011;7630;50.306;8.566;2024-03-22T13:47:55;11.90;;;10.70;;
15061;SDS011;7630;50.306;8.566;2024-03-22T13:51:57;10.80;;;9.80;;
15061;SDS011;7630;50.306;8.566;2024-03-22T13:56:02;11.10;;;9.67;;
15061;SDS011;7630;50.306;8.566;2024-03-22T14:00:03;11.63;;;9.60;;
15061;SDS011;7630;50.306;8.566;2024-03-22T14:04:09;9.60;;;8.80;;
15061;SDS011;7630;50.306;8.566;2024-03-22T14:08:11;10.13;;;9.10;;
15061;SDS011;7630;50.306;8.566;2024-03-22T14:12:12;10.90;;;9.13;;
15061;SDS011;7630;50.306;8.566;2024-03-22T14:16:13;9.67;;;7.87;;
15061;SDS011;7630;50.306;8.566;2024-03-22T14:20:14;9.13;;;8.17;;
15061;SDS011;7630;50.306;8.566;2024-03-22T14:24:17;9.00;;;8.20;;
15061;SDS011;7630;50.306;8.566;2024-03-22T14:28:18;12.37;;;8.43;;
15061;SDS011;7630;50.306;8.566;2024-03-22T14:32:19;11.17;;;9.43;;
15061;SDS011;7630;50.306;8.566;2024-03-22T14:36:21;12.50;;;11.20;;
15061;SDS011;7630;50.306;8.566;2024-03-22T14:40:22;13.77;;;11.57;;
15061;SDS011;7630;50.306;8.566;2024-03-22T14:44:23;15.37;;;12.53;;
15061;SDS011;7630;50.306;8.566;2024-03-22T14:48:24;12.83;;;10.63;;
15061;SDS011;7630;50.306;8.566;2024-03-22T14:52:26;12.47;;;11.27;;
15061;SDS011;7630;50.306;8.566;2024-03-22T14:56:27;16.00;;;11.97;;
15061;SDS011;7630;50.306;8.566;2024-03-22T15:00:28;11.70;;;10.53;;
15061;SDS011;7630;50.306;8.566;2024-03-22T15:04:29;11.10;;;9.93;;
15061;SDS011;7630;50.306;8.566;2024-03-22T15:08:30;13.07;;;11.90;;
15061;SDS011;7630;50.306;8.566;2024-03-22T15:12:33;12.17;;;10.97;;
15061;SDS011;7630;50.306;8.566;2024-03-22T15:16:34;15.63;;;11.13;;
15061;SDS011;7630;50.306;8.566;2024-03-22T15:20:35;14.43;;;11.20;;
15061;SDS011;7630;50.306;8.566;2024-03-22T15:24:37;13.77;;;12.37;;
15061;SDS011;7630;50.306;8.566;2024-03-22T15:28:38;13.33;;;11.70;;
15061;SDS011;7630;50.306;8.566;2024-03-22T15:32:41;12.40;;;11.37;;
15061;SDS011;7630;50.306;8.566;2024-03-22T15:36:42;13.50;;;12.03;;
15061;SDS011;7630;50.306;8.566;2024-03-22T15:40:43;12.87;;;11.20;;
15061;SDS011;7630;50.306;8.566;2024-03-22T15:44:45;12.93;;;11.73;;
15061;SDS011;7630;50.306;8.566;2024-03-22T15:48:46;18.03;;;13.47;;
15061;SDS011;7630;50.306;8.566;2024-03-22T15:52:47;13.43;;;12.13;;
15061;SDS011;7630;50.306;8.566;2024-03-22T15:56:48;12.53;;;11.23;;
15061;SDS011;7630;50.306;8.566;2024-03-22T16:00:49;13.27;;;12.00;;
15061;SDS011;7630;50.306;8.566;2024-03-22T16:04:51;12.60;;;11.37;;
15061;SDS011;7630;50.306;8.566;2024-03-22T16:08:52;11.33;;;9.80;;
15061;SDS011;7630;50.306;8.566;2024-03-22T16:12:53;10.83;;;9.83;;
15061;SDS011;7630;50.306;8.566;2024-03-22T16:16:54;11.40;;;10.10;;
15061;SDS011;7630;50.306;8.566;2024-03-22T16:20:55;12.83;;;10.23;;
15061;SDS011;7630;50.306;8.566;2024-03-22T16:24:56;13.13;;;11.83;;
15061;SDS011;7630;50.306;8.566;2024-03-22T16:28:58;10.70;;;9.70;;
15061;SDS011;7630;50.306;8.566;2024-03-22T16:32:59;14.73;;;11.57;;
15061;SDS011;7630;50.306;8.566;2024-03-22T16:37:00;12.03;;;10.70;;
15061;SDS011;7630;50.306;8.566;2024-03-22T16:41:02;12.43;;;9.97;;
15061;SDS011;7630;50.306;8.566;2024-03-22T16:45:04;10.67;;;9.67;;
15061;SDS011;7630;50.306;8.566;2024-03-22T16:49:05;10.23;;;8.27;;
15061;SDS011;7630;50.306;8.566;2024-03-22T16:53:06;9.87;;;8.90;;
15061;SDS011;7630;50.306;8.566;2024-03-22T16:57:07;10.60;;;9.60;;
15061;SDS011;7630;50.306;8.566;2024-03-22T17:01:08;11.40;;;10.23;;
15061;SDS011;7630;50.306;8.566;2024-03-22T17:05:09;10.87;;;9.77;;
15061;SDS011;7630;50.306;8.566;2024-03-22T17:09:12;12.13;;;10.13;;
15061;SDS011;7630;50.306;8.566;2024-03-22T17:13:13;11.80;;;9.57;;
15061;SDS011;7630;50.306;8.566;2024-03-22T17:17:14;12.53;;;10.53;;
15061;SDS011;7630;50.306;8.566;2024-03-22T17:21:19;14.37;;;13.07;;
15061;SDS011;7630;50.306;8.566;2024-03-22T17:25:24;14.03;;;12.67;;
15061;SDS011;7630;50.306;8.566;2024-03-22T17:29:27;14.53;;;12.93;;
15061;SDS011;7630;50.306;8.566;2024-03-22T17:33:28;12.87;;;11.67;;
15061;SDS011;7630;50.306;8.566;2024-03-22T17:37:29;14.67;;;13.20;;
15061;SDS011;7630;50.306;8.566;2024-03-22T17:41:30;15.47;;;13.77;;
15061;SDS011;7630;50.306;8.566;2024-03-22T17:45:31;13.80;;;12.37;;
15061;SDS011;7630;50.306;8.566;2024-03-22T17:49:32;14.40;;;13.10;;
15061;SDS011;7630;50.306;8.566;2024-03-22T17:53:34;17.23;;;15.53;;
15061;SDS011;7630;50.306;8.566;2024-03-22T17:57:35;16.53;;;15.13;;
15061;SDS011;7630;50.306;8.566;2024-03-22T18:01:36;17.65;;;15.32;;
15061;SDS011;7630;50.306;8.566;2024-03-22T18:05:37;16.93;;;15.13;;
15061;SDS011;7630;50.306;8.566;2024-03-22T18:09:38;17.67;;;15.43;;
15061;SDS011;7630;50.306;8.566;2024-03-22T18:13:39;22.33;;;17.00;;
15061;SDS011;7630;50.306;8.566;2024-03-22T18:17:41;18.40;;;16.43;;
15061;SDS011;7630;50.306;8.566;2024-03-22T18:21:42;18.93;;;16.07;;
15061;SDS011;7630;50.306;8.566;2024-03-22T18:25:46;20.37;;;17.63;;
15061;SDS011;7630;50.306;8.566;2024-03-22T18:29:48;58.23;;;47.53;;
15061;SDS011;7630;50.306;8.566;2024-03-22T18:33:49;39.80;;;35.17;;
15061;SDS011;7630;50.306;8.566;2024-03-22T18:37:51;28.37;;;25.17;;
15061;SDS011;7630;50.306;8.566;2024-03-22T18:41:52;24.37;;;21.77;;
15061;SDS011;7630;50.306;8.566;2024-03-22T18:45:53;25.93;;;19.50;;
15061;SDS011;7630;50.306;8.566;2024-03-22T18:49:54;25.13;;;22.53;;
15061;SDS011;7630;50.306;8.566;2024-03-22T18:53:55;26.33;;;20.40;;
15061;SDS011;7630;50.306;8.566;2024-03-22T18:57:58;25.97;;;22.20;;
15061;SDS011;7630;50.306;8.566;2024-03-22T19:01:59;22.33;;;19.83;;
15061;SDS011;7630;50.306;8.566;2024-03-22T19:06:00;25.50;;;22.83;;
15061;SDS011;7630;50.306;8.566;2024-03-22T19:10:01;26.63;;;23.37;;
15061;SDS011;7630;50.306;8.566;2024-03-22T19:14:03;29.33;;;26.27;;
15061;SDS011;7630;50.306;8.566;2024-03-22T19:18:04;31.37;;;27.57;;
15061;SDS011;7630;50.306;8.566;2024-03-22T19:22:06;27.70;;;24.83;;
15061;SDS011;7630;50.306;8.566;2024-03-22T19:26:07;26.23;;;23.50;;
15061;SDS011;7630;50.306;8.566;2024-03-22T19:30:09;31.53;;;24.77;;
15061;SDS011;7630;50.306;8.566;2024-03-22T19:34:11;29.53;;;26.03;;
15061;SDS011;7630;50.306;8.566;2024-03-22T19:38:12;29.43;;;26.40;;
15061;SDS011;7630;50.306;8.566;2024-03-22T19:42:13;25.33;;;22.53;;
15061;SDS011;7630;50.306;8.566;2024-03-22T19:46:14;24.27;;;20.57;;
15061;SDS011;7630;50.306;8.566;2024-03-22T19:50:15;28.47;;;23.30;;
15061;SDS011;7630;50.306;8.566;2024-03-22T19:54:16;33.30;;;29.90;;
15061;SDS011;7630;50.306;8.566;2024-03-22T19:58:18;30.17;;;25.43;;
15061;SDS011;7630;50.306;8.566;2024-03-22T20:02:23;32.07;;;28.30;;
15061;SDS011;7630;50.306;8.566;2024-03-22T20:06:24;32.03;;;28.63;;
15061;SDS011;7630;50.306;8.566;2024-03-22T20:10:25;33.37;;;29.77;;
15061;SDS011;7630;50.306;8.566;2024-03-22T20:14:26;30.60;;;27.73;;
15061;SDS011;7630;50.306;8.566;2024-03-22T20:18:27;29.77;;;26.83;;
15061;SDS011;7630;50.306;8.566;2024-03-22T20:22:28;30.27;;;27.13;;
15061;SDS011;7630;50.306;8.566;2024-03-22T20:26:30;30.13;;;27.43;;
15061;SDS011;7630;50.306;8.566;2024-03-22T20:30:31;30.23;;;26.70;;
15061;SDS011;7630;50.306;8.566;2024-03-22T20:34:32;23.87;;;21.47;;
